Time;durP1;ratioP1;P1;durP2;ratioP2;P2;SDS_P1;SDS_P2;PMS_P1;PMS_P2;Temp;Humidity;BMP_temperature;BMP_pressure;BME280_temperature;BME280_humidity;BME280_pressure;Samples;Min_cycle;Max_cycle;Signal;HPM_P1;HPM_P2
2023/08/30 00:00:42;;;;;;;0.45;0.25;;;11.30;99.90;;;;;;5113917;28;20524;-73
2023/08/30 00:03:08;;;;;;;2.63;0.32;;;11.20;99.90;;;;;;5095896;28;20026;-73
2023/08/30 00:05:34;;;;;;;0.95;0.10;;;11.20;99.90;;;;;;5113968;28;20020;-73
2023/08/30 00:07:59;;;;;;;0.30;0.20;;;11.20;99.90;;;;;;5114009;28;20027;-73
2023/08/30 00:10:25;;;;;;;1.15;0.32;;;11.20;99.90;;;;;;5114025;28;20085;-73
2023/08/30 00:12:51;;;;;;;1.70;0.30;;;11.20;99.90;;;;;;5095681;28;20034;-73
2023/08/30 00:15:17;;;;;;;0.40;0.20;;;11.20;99.90;;;;;;5113849;28;20384;-73
2023/08/30 00:17:43;;;;;;;0.63;0.20;;;11.20;99.90;;;;;;5113858;28;20020;-73
2023/08/30 00:20:09;;;;;;;0.50;0.30;;;11.10;99.90;;;;;;5113672;28;20103;-73
2023/08/30 00:22:35;;;;;;;0.30;0.20;;;11.10;99.90;;;;;;5113754;28;20437;-73
2023/08/30 00:25:04;;;;;;;1.75;0.30;;;11.10;99.90;;;;;;5113936;28;20480;-73
2023/08/30 00:27:29;;;;;;;0.82;0.30;;;11.10;99.90;;;;;;5114008;28;20110;-73
2023/08/30 00:29:55;;;;;;;0.57;0.20;;;11.20;99.90;;;;;;5095375;28;20112;-74
2023/08/30 00:32:21;;;;;;;0.40;0.22;;;11.20;99.90;;;;;;5113026;28;20028;-73
2023/08/30 00:34:51;;;;;;;0.10;0.10;;;11.20;99.90;;;;;;5095799;28;20035;-73
2023/08/30 00:37:16;;;;;;;0.70;0.40;;;11.30;99.90;;;;;;5099605;28;20028;-74
2023/08/30 00:39:42;;;;;;;0.30;0.20;;;11.20;99.90;;;;;;5118028;28;20201;-74
2023/08/30 00:42:09;;;;;;;0.60;0.30;;;11.20;99.90;;;;;;5117999;28;20036;-73
2023/08/30 00:44:34;;;;;;;0.30;0.30;;;11.20;99.90;;;;;;5099656;28;20081;-73
2023/08/30 00:47:04;;;;;;;0.68;0.28;;;11.20;99.90;;;;;;5117747;28;20027;-74
2023/08/30 00:49:33;;;;;;;0.32;0.20;;;11.20;99.90;;;;;;5099479;28;20027;-74
2023/08/30 00:52:02;;;;;;;1.00;0.40;;;11.20;99.90;;;;;;5117938;28;20480;-73
2023/08/30 00:54:28;;;;;;;2.55;0.98;;;11.30;99.90;;;;;;5117531;28;20031;-73
2023/08/30 00:56:54;;;;;;;5.57;2.35;;;11.30;99.90;;;;;;5117809;28;20387;-73
2023/08/30 00:59:21;;;;;;;3.13;1.40;;;11.30;99.90;;;;;;5117965;28;20032;-73
2023/08/30 01:01:48;;;;;;;1.88;0.85;;;11.30;99.90;;;;;;5117306;28;20030;-73
2023/08/30 01:04:14;;;;;;;1.48;0.40;;;11.30;99.90;;;;;;5117674;28;20091;-73
2023/08/30 01:06:39;;;;;;;0.95;0.45;;;11.30;99.90;;;;;;5105404;28;20488;-73
2023/08/30 01:09:05;;;;;;;0.50;0.40;;;11.30;99.90;;;;;;5092180;28;20161;-73
2023/08/30 01:11:48;;;;;;;0.43;0.25;;;11.30;99.90;;;;;;5112000;28;20035;-73
2023/08/30 01:14:29;;;;;;;0.38;0.25;;;11.30;99.90;;;;;;5111480;28;20058;-73
2023/08/30 01:16:57;;;;;;;0.32;0.20;;;11.30;99.90;;;;;;5113337;28;20016;-73
2023/08/30 01:19:41;;;;;;;0.65;0.30;;;11.40;99.90;;;;;;5098628;28;20027;-73
2023/08/30 01:22:36;;;;;;;1.52;0.30;;;11.40;99.90;;;;;;5116317;28;20076;-73
2023/08/30 01:25:26;;;;;;;0.30;0.20;;;11.40;99.90;;;;;;5079525;28;20028;-73
2023/08/30 01:27:53;;;;;;;0.30;0.30;;;11.40;99.90;;;;;;5097976;28;20028;-73
2023/08/30 01:30:20;;;;;;;0.65;0.22;;;11.40;99.90;;;;;;5096864;28;20111;-73
2023/08/30 01:32:47;;;;;;;0.82;0.30;;;11.40;99.90;;;;;;5096511;28;20024;-73
2023/08/30 01:35:19;;;;;;;0.55;0.20;;;11.40;99.90;;;;;;5096581;28;20055;-73
2023/08/30 01:37:48;;;;;;;0.63;0.32;;;11.40;99.90;;;;;;5096705;28;20016;-73
2023/08/30 01:40:16;;;;;;;1.33;0.40;;;11.40;99.90;;;;;;5115674;28;20413;-73
2023/08/30 01:42:44;;;;;;;0.25;0.20;;;11.40;99.90;;;;;;5097828;28;20027;-73
2023/08/30 01:45:13;;;;;;;0.98;0.30;;;11.40;99.90;;;;;;5116657;28;20023;-74
2023/08/30 01:47:40;;;;;;;0.28;0.28;;;11.40;99.90;;;;;;5097148;28;20368;-73
2023/08/30 01:50:07;;;;;;;0.75;0.30;;;11.40;99.90;;;;;;5116469;28;20034;-74
2023/08/30 01:52:33;;;;;;;0.22;0.20;;;11.40;99.90;;;;;;5081468;28;20036;-74
2023/08/30 01:55:01;;;;;;;0.30;0.22;;;11.40;99.90;;;;;;5098167;28;20114;-74
2023/08/30 01:57:27;;;;;;;0.52;0.30;;;11.40;99.90;;;;;;5116367;28;20114;-73
2023/08/30 01:59:52;;;;;;;0.30;0.30;;;11.40;99.90;;;;;;5116328;28;20069;-73
2023/08/30 02:02:18;;;;;;;0.65;0.32;;;11.40;99.90;;;;;;5116273;28;20035;-74
2023/08/30 02:04:44;;;;;;;0.30;0.30;;;11.40;99.90;;;;;;5116283;28;20031;-74
2023/08/30 02:07:36;;;;;;;0.30;0.30;;;11.40;99.90;;;;;;5098014;28;20115;-73
2023/08/30 02:10:08;;;;;;;0.30;0.30;;;11.40;99.90;;;;;;5116214;28;20503;-74
2023/08/30 02:12:49;;;;;;;0.45;0.30;;;11.40;99.90;;;;;;5116487;28;20024;-73
2023/08/30 02:15:17;;;;;;;0.30;0.30;;;11.40;99.90;;;;;;5116030;28;20387;-74
2023/08/30 02:17:43;;;;;;;0.45;0.40;;;11.50;99.90;;;;;;5115975;28;20039;-73
2023/08/30 02:20:09;;;;;;;1.90;0.43;;;11.50;99.90;;;;;;5097546;28;20027;-73
2023/08/30 02:22:35;;;;;;;1.10;0.47;;;11.50;99.90;;;;;;5116269;28;20027;-74
2023/08/30 02:25:04;;;;;;;1.15;0.50;;;11.50;99.90;;;;;;5115834;28;20484;-74
2023/08/30 02:27:34;;;;;;;0.40;0.20;;;11.50;99.90;;;;;;5097800;28;20044;-73
2023/08/30 02:30:00;;;;;;;0.50;0.30;;;11.60;99.90;;;;;;5096890;28;20483;-73
2023/08/30 02:32:25;;;;;;;0.70;0.40;;;11.60;99.90;;;;;;5115653;28;20035;-73
2023/08/30 02:34:53;;;;;;;0.20;0.20;;;11.50;99.90;;;;;;5115688;28;20028;-74
2023/08/30 02:37:19;;;;;;;0.25;0.20;;;11.50;99.90;;;;;;5115700;28;20043;-73
2023/08/30 02:39:45;;;;;;;0.47;0.30;;;11.60;99.90;;;;;;5115508;28;20035;-73
2023/08/30 02:42:10;;;;;;;0.40;0.30;;;11.60;99.90;;;;;;5097349;28;20077;-73
2023/08/30 02:44:36;;;;;;;1.13;0.47;;;11.60;99.90;;;;;;5115549;28;20024;-74
2023/08/30 02:47:02;;;;;;;0.60;0.30;;;11.60;99.90;;;;;;5115868;28;20076;-74
2023/08/30 02:49:27;;;;;;;0.43;0.30;;;11.60;99.90;;;;;;5115403;28;20028;-74
2023/08/30 02:51:53;;;;;;;0.28;0.20;;;11.60;99.90;;;;;;5115197;28;20055;-73
2023/08/30 02:54:19;;;;;;;0.30;0.30;;;11.60;99.90;;;;;;5115207;28;20046;-74
2023/08/30 02:56:45;;;;;;;0.85;0.30;;;11.60;99.90;;;;;;5115253;28;20395;-74
2023/08/30 02:59:11;;;;;;;0.32;0.22;;;11.60;99.90;;;;;;5115032;28;20039;-74
2023/08/30 03:01:38;;;;;;;0.50;0.20;;;11.70;99.90;;;;;;5114976;28;20118;-74
2023/08/30 03:04:05;;;;;;;0.30;0.20;;;11.60;99.90;;;;;;5096816;28;20044;-74
2023/08/30 03:06:33;;;;;;;0.20;0.17;;;11.60;99.90;;;;;;5115027;28;20027;-74
2023/08/30 03:08:59;;;;;;;0.38;0.20;;;11.60;99.90;;;;;;5114989;28;20043;-74
2023/08/30 03:11:24;;;;;;;0.43;0.20;;;11.60;99.90;;;;;;5115137;28;20125;-74
2023/08/30 03:13:50;;;;;;;0.52;0.25;;;11.60;99.90;;;;;;5115125;28;20027;-74
2023/08/30 03:16:17;;;;;;;1.15;0.35;;;11.60;99.90;;;;;;5114791;28;20030;-74
2023/08/30 03:18:44;;;;;;;0.80;0.30;;;11.60;99.90;;;;;;5114833;28;20127;-74
2023/08/30 03:21:10;;;;;;;0.32;0.30;;;11.60;99.90;;;;;;5114638;28;20032;-74
2023/08/30 03:23:36;;;;;;;0.82;0.20;;;11.60;99.90;;;;;;5114741;28;20098;-74
2023/08/30 03:26:13;;;;;;;0.60;0.40;;;11.60;99.90;;;;;;5114865;28;20047;-74
2023/08/30 03:28:40;;;;;;;0.40;0.30;;;11.60;99.90;;;;;;5096330;28;20020;-74
2023/08/30 03:31:15;;;;;;;0.60;0.30;;;11.60;99.90;;;;;;5096351;28;20023;-74
2023/08/30 03:33:42;;;;;;;0.55;0.30;;;11.50;99.90;;;;;;5115318;28;20421;-74
2023/08/30 03:36:10;;;;;;;1.15;0.40;;;11.50;99.90;;;;;;5114427;28;20035;-74
2023/08/30 03:38:35;;;;;;;0.25;0.20;;;11.50;99.90;;;;;;5096144;28;20058;-74
2023/08/30 03:41:03;;;;;;;0.40;0.30;;;11.50;99.90;;;;;;5096064;28;20063;-74
2023/08/30 03:43:30;;;;;;;0.60;0.40;;;11.60;99.90;;;;;;5114322;28;20102;-74
2023/08/30 03:45:56;;;;;;;0.73;0.30;;;11.60;99.90;;;;;;5096308;28;20517;-74
2023/08/30 03:48:22;;;;;;;1.60;0.50;;;11.60;99.90;;;;;;5114083;28;20024;-74
2023/08/30 03:50:47;;;;;;;0.40;0.30;;;11.60;99.90;;;;;;5114035;28;20035;-74
2023/08/30 03:53:13;;;;;;;0.32;0.25;;;11.60;99.90;;;;;;5114227;28;20039;-75
2023/08/30 03:55:40;;;;;;;0.60;0.40;;;11.60;99.90;;;;;;5114477;28;20112;-74
2023/08/30 03:58:05;;;;;;;2.08;0.30;;;11.60;99.90;;;;;;5114063;28;20031;-74
2023/08/30 04:00:31;;;;;;;0.30;0.25;;;11.60;99.90;;;;;;5114238;28;20027;-74
2023/08/30 04:02:57;;;;;;;0.43;0.30;;;11.50;99.90;;;;;;5114076;28;20387;-74
2023/08/30 04:05:22;;;;;;;1.88;0.50;;;11.60;99.90;;;;;;5114309;28;20042;-74
2023/08/30 04:07:48;;;;;;;0.82;0.43;;;11.60;99.90;;;;;;5114253;28;20023;-74
2023/08/30 04:10:14;;;;;;;1.50;0.60;;;11.50;99.90;;;;;;5113597;28;20035;-74
2023/08/30 04:12:39;;;;;;;2.28;0.57;;;11.50;99.90;;;;;;5113937;28;20028;-74
2023/08/30 04:15:05;;;;;;;0.73;0.50;;;11.50;99.90;;;;;;5113943;28;20082;-74
2023/08/30 04:17:31;;;;;;;0.73;0.45;;;11.50;99.90;;;;;;5095753;28;20031;-74
2023/08/30 04:19:57;;;;;;;1.55;0.50;;;11.50;99.90;;;;;;5113736;28;20533;-73
2023/08/30 04:22:22;;;;;;;1.38;0.47;;;11.60;99.90;;;;;;5113851;28;20031;-73
2023/08/30 04:24:48;;;;;;;1.08;0.40;;;11.60;99.90;;;;;;5113527;28;20051;-73
2023/08/30 04:27:14;;;;;;;1.13;0.50;;;11.50;99.90;;;;;;5114093;28;20032;-74
2023/08/30 04:29:40;;;;;;;1.27;0.47;;;11.60;99.90;;;;;;5113717;28;20523;-73
2023/08/30 04:32:06;;;;;;;0.90;0.47;;;11.60;99.90;;;;;;5114049;28;20129;-74
2023/08/30 04:34:32;;;;;;;1.30;0.60;;;11.60;99.90;;;;;;5095666;28;20055;-74
2023/08/30 04:36:58;;;;;;;1.90;0.50;;;11.60;99.90;;;;;;5113732;28;20034;-73
2023/08/30 04:39:23;;;;;;;0.70;0.40;;;11.60;99.90;;;;;;5113718;28;20027;-74
2023/08/30 04:41:49;;;;;;;3.20;1.45;;;11.60;99.90;;;;;;5114373;28;20415;-73
2023/08/30 04:44:16;;;;;;;5.95;3.72;;;11.60;99.90;;;;;;5113552;28;20031;-74
2023/08/30 04:46:41;;;;;;;6.03;3.83;;;11.60;99.90;;;;;;5113757;28;20027;-74
2023/08/30 04:49:07;;;;;;;2.83;2.22;;;11.60;99.90;;;;;;5113610;28;20494;-74
2023/08/30 04:51:33;;;;;;;2.78;2.10;;;11.60;99.90;;;;;;5113842;28;20031;-74
2023/08/30 04:53:58;;;;;;;2.10;1.70;;;11.60;99.90;;;;;;5113609;28;20107;-74
2023/08/30 04:56:24;;;;;;;2.05;1.35;;;11.50;99.90;;;;;;5113554;28;20506;-74
2023/08/30 04:58:50;;;;;;;2.25;1.40;;;11.60;99.90;;;;;;5095695;28;20103;-73
2023/08/30 05:01:16;;;;;;;1.90;1.10;;;11.60;99.90;;;;;;5113566;28;20476;-73
2023/08/30 05:03:42;;;;;;;1.10;0.90;;;11.50;99.90;;;;;;5113543;28;20411;-73
2023/08/30 05:06:08;;;;;;;1.10;0.75;;;11.50;99.90;;;;;;5113164;28;20023;-73
2023/08/30 05:08:34;;;;;;;1.23;0.68;;;11.50;99.90;;;;;;5113938;28;20012;-73
2023/08/30 05:10:59;;;;;;;1.70;0.70;;;11.50;99.90;;;;;;5113320;28;20391;-74
2023/08/30 05:13:25;;;;;;;2.17;1.00;;;11.50;99.90;;;;;;5113380;28;20125;-73
2023/08/30 05:15:51;;;;;;;1.83;1.00;;;11.50;99.90;;;;;;5113480;28;20038;-74
2023/08/30 05:18:19;;;;;;;1.98;1.02;;;11.50;99.90;;;;;;5113457;28;20028;-73
2023/08/30 05:20:44;;;;;;;1.15;0.60;;;11.60;99.90;;;;;;5113321;28;20047;-73
2023/08/30 05:23:10;;;;;;;2.55;1.00;;;11.60;99.90;;;;;;5117267;28;20471;-73
2023/08/30 05:25:36;;;;;;;1.33;0.80;;;11.60;99.90;;;;;;5117139;28;20081;-74
2023/08/30 05:28:01;;;;;;;1.52;0.93;;;11.60;99.90;;;;;;5117234;28;20067;-73
2023/08/30 05:30:27;;;;;;;1.20;0.70;;;11.50;99.90;;;;;;5116881;28;20455;-73
2023/08/30 05:32:53;;;;;;;1.20;0.70;;;11.50;99.90;;;;;;5117936;28;20028;-73
2023/08/30 05:35:18;;;;;;;0.93;0.60;;;11.50;99.90;;;;;;5117222;28;20023;-73
2023/08/30 05:37:44;;;;;;;1.05;0.70;;;11.50;99.90;;;;;;5116776;28;20078;-73
2023/08/30 05:40:10;;;;;;;1.88;0.93;;;11.60;99.90;;;;;;5098531;28;20035;-73
2023/08/30 05:42:36;;;;;;;2.15;1.05;;;11.50;99.90;;;;;;5114421;28;20047;-72
2023/08/30 05:45:02;;;;;;;1.65;0.95;;;11.60;99.90;;;;;;5113895;28;20019;-72
2023/08/30 05:47:28;;;;;;;1.75;0.90;;;11.60;99.90;;;;;;5097930;28;20019;-72
2023/08/30 05:49:54;;;;;;;1.10;0.60;;;11.60;99.90;;;;;;5115082;28;20020;-73
2023/08/30 05:52:19;;;;;;;0.75;0.50;;;11.60;99.90;;;;;;5115820;28;20044;-73
2023/08/30 05:54:45;;;;;;;0.80;0.60;;;11.60;99.90;;;;;;5115340;27;20128;-72
2023/08/30 05:57:11;;;;;;;0.70;0.50;;;11.60;99.90;;;;;;5116772;28;20023;-73
2023/08/30 05:59:36;;;;;;;1.38;0.75;;;11.60;99.90;;;;;;5116540;28;20064;-73
2023/08/30 06:02:04;;;;;;;1.83;0.70;;;11.60;99.90;;;;;;5097384;27;20031;-72
2023/08/30 06:04:29;;;;;;;1.55;0.77;;;11.60;99.90;;;;;;5098194;28;20024;-72
2023/08/30 06:06:55;;;;;;;2.10;0.95;;;11.60;99.90;;;;;;5115871;28;20103;-72
2023/08/30 06:09:21;;;;;;;2.13;1.17;;;11.60;99.90;;;;;;5115743;28;20498;-72
2023/08/30 06:11:46;;;;;;;2.10;1.15;;;11.60;99.90;;;;;;5115550;28;20099;-72
2023/08/30 06:14:12;;;;;;;2.72;1.60;;;11.70;99.90;;;;;;5115097;28;20035;-73
2023/08/30 06:16:38;;;;;;;2.00;1.20;;;11.70;99.90;;;;;;5098376;28;20030;-73
2023/08/30 06:19:04;;;;;;;1.55;1.00;;;11.70;99.90;;;;;;5116004;28;20069;-73
2023/08/30 06:21:29;;;;;;;1.60;0.80;;;11.70;99.90;;;;;;5096775;28;20032;-72
2023/08/30 06:23:55;;;;;;;1.15;0.68;;;11.70;99.90;;;;;;5097282;28;20118;-73
2023/08/30 06:26:21;;;;;;;0.77;0.57;;;11.70;99.90;;;;;;5105489;28;20028;-72
2023/08/30 06:28:46;;;;;;;0.52;0.40;;;11.70;99.90;;;;;;5114835;28;20036;-73
2023/08/30 06:31:12;;;;;;;0.50;0.40;;;11.70;99.90;;;;;;5114700;28;20468;-72
2023/08/30 06:33:39;;;;;;;0.45;0.40;;;11.70;99.90;;;;;;5115128;28;20028;-73
2023/08/30 06:36:05;;;;;;;0.98;0.50;;;11.70;99.90;;;;;;5116135;28;20024;-73
2023/08/30 06:38:30;;;;;;;1.90;0.88;;;11.70;99.90;;;;;;5115628;28;20104;-73
2023/08/30 06:40:58;;;;;;;1.80;1.00;;;11.80;99.90;;;;;;5114899;28;20073;-73
2023/08/30 06:43:24;;;;;;;1.35;0.90;;;11.80;99.90;;;;;;5115428;28;20621;-73
2023/08/30 06:45:49;;;;;;;1.05;0.68;;;11.80;99.90;;;;;;5096686;28;20055;-73
2023/08/30 06:48:15;;;;;;;1.58;0.60;;;11.90;99.90;;;;;;5115306;28;20381;-73
2023/08/30 06:50:41;;;;;;;0.90;0.57;;;11.90;99.90;;;;;;5079335;28;20036;-73
2023/08/30 06:53:06;;;;;;;0.32;0.30;;;12.00;99.90;;;;;;5114602;28;20024;-74
2023/08/30 06:55:33;;;;;;;0.60;0.30;;;12.10;99.90;;;;;;5115590;28;20034;-73
2023/08/30 06:57:59;;;;;;;0.47;0.40;;;12.10;99.90;;;;;;5114812;28;20106;-73
2023/08/30 07:00:24;;;;;;;0.82;0.30;;;12.10;99.90;;;;;;5114294;28;20058;-73
2023/08/30 07:02:50;;;;;;;1.08;0.50;;;12.20;99.90;;;;;;5115399;28;20028;-72
2023/08/30 07:05:16;;;;;;;1.27;0.80;;;12.20;99.90;;;;;;5114861;28;20024;-72
2023/08/30 07:07:42;;;;;;;3.25;0.93;;;12.20;99.90;;;;;;5096638;28;20396;-73
2023/08/30 07:10:08;;;;;;;1.33;0.80;;;12.20;99.90;;;;;;5096820;28;20038;-72
2023/08/30 07:12:33;;;;;;;0.88;0.60;;;12.20;99.90;;;;;;5114627;28;20063;-73
2023/08/30 07:14:59;;;;;;;1.83;0.63;;;12.30;99.90;;;;;;5097077;28;20055;-72
2023/08/30 07:17:25;;;;;;;0.73;0.40;;;12.20;99.90;;;;;;5114980;28;20032;-72
2023/08/30 07:19:50;;;;;;;1.20;0.70;;;12.20;99.90;;;;;;5114999;28;20129;-72
2023/08/30 07:22:16;;;;;;;2.25;0.80;;;12.30;99.90;;;;;;5114495;28;20032;-72
2023/08/30 07:24:45;;;;;;;1.48;0.75;;;12.20;99.90;;;;;;5114847;28;20102;-72
2023/08/30 07:27:12;;;;;;;1.27;0.70;;;12.30;99.90;;;;;;5114623;28;20118;-72
2023/08/30 07:29:40;;;;;;;1.13;0.70;;;12.30;99.90;;;;;;5114397;28;20018;-72
2023/08/30 07:32:06;;;;;;;0.73;0.50;;;12.30;99.90;;;;;;5114620;28;20032;-72
2023/08/30 07:34:32;;;;;;;0.88;0.63;;;12.40;99.90;;;;;;5114378;28;20035;-72
2023/08/30 07:36:58;;;;;;;1.38;0.60;;;12.40;99.90;;;;;;5114994;28;20372;-72
2023/08/30 07:39:27;;;;;;;0.47;0.30;;;12.40;99.90;;;;;;5114632;28;20039;-72
2023/08/30 07:41:52;;;;;;;0.60;0.45;;;12.40;99.90;;;;;;5114319;28;20031;-72
2023/08/30 07:44:20;;;;;;;0.80;0.40;;;12.40;99.90;;;;;;5113906;28;20069;-72
2023/08/30 07:46:45;;;;;;;0.47;0.30;;;12.50;99.90;;;;;;5113965;28;20103;-72
2023/08/30 07:49:11;;;;;;;1.10;0.40;;;12.50;99.90;;;;;;5096141;28;20099;-72
2023/08/30 07:51:37;;;;;;;0.45;0.40;;;12.50;99.90;;;;;;5113906;28;20028;-73
2023/08/30 07:54:03;;;;;;;0.30;0.20;;;12.50;99.90;;;;;;5114097;28;20039;-72
2023/08/30 07:56:29;;;;;;;0.73;0.40;;;12.50;99.90;;;;;;5114074;28;20031;-73
2023/08/30 07:58:54;;;;;;;1.08;0.40;;;12.50;99.90;;;;;;5114055;28;20048;-72
2023/08/30 08:01:20;;;;;;;0.82;0.30;;;12.60;99.90;;;;;;5114035;28;20038;-72
2023/08/30 08:03:47;;;;;;;0.70;0.30;;;12.60;99.90;;;;;;5113862;28;20031;-73
2023/08/30 08:06:12;;;;;;;0.38;0.30;;;12.60;99.90;;;;;;5113738;28;20031;-72
2023/08/30 08:08:38;;;;;;;0.43;0.20;;;12.60;99.90;;;;;;5114039;28;20103;-72
2023/08/30 08:11:04;;;;;;;0.52;0.30;;;12.60;99.90;;;;;;5095919;28;20035;-72
2023/08/30 08:13:29;;;;;;;0.80;0.35;;;12.60;99.90;;;;;;5113956;28;20483;-72
2023/08/30 08:15:58;;;;;;;1.08;0.50;;;12.70;99.90;;;;;;5114254;28;20134;-72
2023/08/30 08:18:24;;;;;;;1.60;0.70;;;12.70;99.90;;;;;;5113688;28;20161;-72
2023/08/30 08:20:50;;;;;;;0.47;0.30;;;12.70;99.90;;;;;;5113815;28;20161;-72
2023/08/30 08:23:16;;;;;;;0.68;0.40;;;12.60;99.90;;;;;;5113360;28;20024;-72
2023/08/30 08:25:41;;;;;;;0.80;0.35;;;12.60;99.90;;;;;;5113889;28;20142;-72
2023/08/30 08:28:07;;;;;;;0.77;0.38;;;12.60;99.90;;;;;;5113445;28;20038;-73
2023/08/30 08:30:33;;;;;;;0.98;0.40;;;12.60;99.90;;;;;;5113690;28;20023;-72
2023/08/30 08:32:59;;;;;;;0.45;0.32;;;12.60;99.90;;;;;;5113113;28;20026;-73
2023/08/30 08:35:25;;;;;;;0.70;0.50;;;12.70;99.90;;;;;;5096974;28;20024;-72
2023/08/30 08:37:51;;;;;;;0.85;0.47;;;12.80;99.90;;;;;;5113352;28;20131;-72
2023/08/30 08:40:16;;;;;;;0.50;0.20;;;12.80;99.90;;;;;;5113699;28;20023;-72
2023/08/30 08:42:43;;;;;;;1.27;0.60;;;13.00;99.90;;;;;;5113833;28;20019;-73
2023/08/30 08:45:10;;;;;;;0.60;0.40;;;13.10;99.90;;;;;;5113960;28;20032;-73
2023/08/30 08:47:36;;;;;;;0.77;0.40;;;13.20;99.90;;;;;;5113022;28;20564;-72
2023/08/30 08:50:05;;;;;;;2.08;0.57;;;13.30;99.90;;;;;;5113531;28;20067;-72
2023/08/30 08:52:30;;;;;;;0.82;0.43;;;13.40;99.90;;;;;;5095169;28;20081;-73
2023/08/30 08:54:57;;;;;;;1.02;0.60;;;13.40;99.90;;;;;;5113112;28;20032;-72
2023/08/30 08:57:23;;;;;;;1.75;0.40;;;13.50;99.90;;;;;;5116117;28;20106;-73
2023/08/30 08:59:50;;;;;;;1.58;0.55;;;13.50;99.90;;;;;;5117308;28;20024;-72
2023/08/30 09:02:16;;;;;;;0.88;0.50;;;13.50;99.90;;;;;;5117357;28;20023;-72
2023/08/30 09:04:41;;;;;;;0.52;0.40;;;13.50;99.90;;;;;;5118662;27;20050;-73
2023/08/30 09:07:08;;;;;;;1.73;0.50;;;13.50;99.90;;;;;;5119747;27;20028;-72
2023/08/30 09:09:34;;;;;;;0.93;0.55;;;13.60;99.90;;;;;;5116822;28;20046;-73
2023/08/30 09:12:00;;;;;;;1.15;0.40;;;13.60;99.90;;;;;;5118928;27;20098;-72
2023/08/30 09:14:25;;;;;;;0.68;0.30;;;13.50;99.90;;;;;;5117857;27;20032;-72
2023/08/30 09:17:00;;;;;;;1.05;0.50;;;13.60;99.90;;;;;;5117278;28;20027;-72
2023/08/30 09:19:26;;;;;;;1.05;0.43;;;13.60;99.90;;;;;;5117207;28;20027;-72
2023/08/30 09:21:57;;;;;;;0.77;0.50;;;13.70;99.90;;;;;;5116392;28;20020;-73
2023/08/30 09:24:23;;;;;;;6.65;0.52;;;13.70;99.90;;;;;;5097983;28;20488;-73
2023/08/30 09:26:53;;;;;;;1.52;0.50;;;13.80;99.90;;;;;;5117241;28;20043;-72
2023/08/30 09:29:24;;;;;;;1.77;0.30;;;13.80;99.90;;;;;;5116723;28;20069;-73
2023/08/30 09:31:56;;;;;;;0.70;0.50;;;13.70;99.90;;;;;;5095877;28;20039;-73
2023/08/30 09:34:25;;;;;;;1.80;0.40;;;13.80;99.90;;;;;;5095488;28;20032;-73
2023/08/30 09:36:51;;;;;;;0.68;0.30;;;13.90;99.90;;;;;;5095935;28;20095;-72
2023/08/30 09:39:17;;;;;;;0.77;0.50;;;14.00;99.90;;;;;;5096659;28;20024;-72
2023/08/30 09:41:45;;;;;;;0.60;0.50;;;14.10;99.90;;;;;;5095755;28;20032;-72
2023/08/30 09:44:12;;;;;;;0.75;0.50;;;14.20;99.90;;;;;;5097115;28;20056;-72
2023/08/30 09:46:46;;;;;;;1.02;0.30;;;14.30;99.90;;;;;;5096418;28;20024;-72
2023/08/30 09:49:12;;;;;;;1.40;0.50;;;14.50;99.90;;;;;;5115194;28;20051;-72
2023/08/30 09:51:43;;;;;;;0.80;0.50;;;14.60;99.90;;;;;;5116519;28;20065;-72
2023/08/30 09:54:28;;;;;;;1.58;0.73;;;14.80;99.90;;;;;;5116345;28;20084;-72
2023/08/30 09:56:57;;;;;;;1.33;0.60;;;15.00;99.90;;;;;;5116500;28;20127;-72
2023/08/30 09:59:23;;;;;;;0.70;0.50;;;15.20;99.90;;;;;;5116720;28;20024;-72
2023/08/30 10:01:52;;;;;;;1.33;0.52;;;15.30;99.90;;;;;;5116200;28;20080;-72
2023/08/30 10:04:19;;;;;;;0.80;0.50;;;15.40;99.90;;;;;;5116307;28;20472;-72
2023/08/30 10:06:46;;;;;;;0.88;0.60;;;15.50;99.90;;;;;;5116251;28;20491;-72
2023/08/30 10:09:12;;;;;;;0.52;0.40;;;15.60;99.90;;;;;;5115316;28;20023;-72
2023/08/30 10:11:38;;;;;;;2.30;0.70;;;15.60;99.90;;;;;;5116016;28;20020;-72
2023/08/30 10:14:05;;;;;;;0.47;0.35;;;15.70;99.90;;;;;;5116102;28;20038;-72
2023/08/30 10:16:42;;;;;;;0.73;0.50;;;15.70;99.90;;;;;;5116353;27;20032;-72
2023/08/30 10:19:28;;;;;;;0.95;0.60;;;15.70;99.90;;;;;;5116037;28;20063;-72
2023/08/30 10:22:03;;;;;;;1.33;0.50;;;15.80;99.90;;;;;;5115155;28;20032;-72
2023/08/30 10:24:36;;;;;;;0.88;0.50;;;15.80;99.90;;;;;;5116017;28;20531;-72
2023/08/30 10:27:05;;;;;;;1.02;0.50;;;15.90;99.90;;;;;;5116066;28;20024;-72
2023/08/30 10:29:33;;;;;;;1.13;0.63;;;15.80;99.90;;;;;;5115529;28;20020;-72
2023/08/30 10:32:05;;;;;;;1.17;0.73;;;15.90;99.90;;;;;;5115645;28;20152;-72
2023/08/30 10:34:37;;;;;;;0.65;0.47;;;15.90;99.90;;;;;;5115725;28;20062;-72
2023/08/30 10:37:08;;;;;;;1.00;0.57;;;16.00;99.90;;;;;;5115662;28;20036;-72
2023/08/30 10:39:35;;;;;;;;;;;16.00;99.90;;;;;;5113530;28;20069;-72
2023/08/30 10:42:06;;;;;;;1.42;0.60;;;16.10;99.90;;;;;;5114442;28;19921;-72
2023/08/30 10:44:32;;;;;;;1.50;0.60;;;16.10;99.90;;;;;;5112849;27;20036;-73
2023/08/30 10:47:01;;;;;;;1.30;0.57;;;16.10;99.90;;;;;;5115170;28;20041;-72
2023/08/30 10:49:27;;;;;;;1.00;0.50;;;16.10;99.90;;;;;;5115400;28;20426;-72
2023/08/30 10:52:00;;;;;;;0.80;0.50;;;16.00;99.90;;;;;;5113918;28;20024;-72
2023/08/30 10:54:38;;;;;;;0.57;0.35;;;15.90;99.90;;;;;;5089514;28;20043;-72
2023/08/30 10:57:04;;;;;;;2.78;0.35;;;15.80;99.90;;;;;;5108163;28;20024;-72
2023/08/30 10:59:30;;;;;;;2.20;0.63;;;15.70;99.90;;;;;;5110115;28;20035;-72
2023/08/30 11:02:00;;;;;;;0.60;0.40;;;15.50;99.90;;;;;;5112262;28;20030;-73
2023/08/30 11:04:26;;;;;;;1.70;0.50;;;15.40;99.90;;;;;;5095988;28;20055;-72
2023/08/30 11:06:52;;;;;;;1.08;0.60;;;15.20;99.90;;;;;;5114747;28;20475;-72
2023/08/30 11:09:20;;;;;;;0.85;0.45;;;15.10;99.90;;;;;;5114521;28;20052;-72
2023/08/30 11:11:47;;;;;;;2.17;0.50;;;15.10;99.90;;;;;;5114854;28;20024;-72
2023/08/30 11:14:14;;;;;;;1.35;0.50;;;15.10;99.90;;;;;;5115186;28;20020;-72
2023/08/30 11:16:40;;;;;;;0.77;0.38;;;15.10;99.90;;;;;;5115182;28;20379;-72
2023/08/30 11:19:08;;;;;;;0.52;0.20;;;15.10;99.90;;;;;;5115007;28;20035;-72
2023/08/30 11:21:37;;;;;;;0.45;0.32;;;15.10;99.90;;;;;;5114167;28;20023;-74
2023/08/30 11:24:07;;;;;;;0.80;0.40;;;15.10;99.90;;;;;;5115001;28;20075;-72
2023/08/30 11:26:33;;;;;;;0.40;0.30;;;15.20;99.90;;;;;;5114069;28;20115;-72
2023/08/30 11:29:06;;;;;;;0.70;0.40;;;15.20;99.90;;;;;;5115353;28;20070;-72
2023/08/30 11:31:32;;;;;;;0.68;0.40;;;15.30;99.90;;;;;;5102200;28;20055;-72
2023/08/30 11:33:59;;;;;;;0.57;0.30;;;15.40;99.90;;;;;;5111054;28;20055;-72
2023/08/30 11:36:36;;;;;;;1.52;0.60;;;15.50;99.90;;;;;;5104474;28;20078;-72
2023/08/30 11:39:02;;;;;;;0.60;0.40;;;15.50;99.90;;;;;;5108222;28;20027;-72
2023/08/30 11:41:28;;;;;;;0.98;0.45;;;15.50;99.90;;;;;;5112389;28;20027;-73
2023/08/30 11:43:54;;;;;;;0.50;0.28;;;15.50;99.90;;;;;;5105733;28;20433;-72
2023/08/30 11:46:21;;;;;;;0.90;0.60;;;15.50;99.90;;;;;;5099045;28;20028;-72
2023/08/30 11:48:49;;;;;;;0.95;0.55;;;15.50;99.90;;;;;;5100612;28;20046;-72
2023/08/30 11:51:14;;;;;;;1.10;0.50;;;15.50;99.90;;;;;;5101768;28;20491;-72
2023/08/30 11:53:41;;;;;;;1.80;0.50;;;15.60;99.90;;;;;;5085731;28;20027;-72
2023/08/30 11:56:07;;;;;;;0.73;0.38;;;15.60;99.90;;;;;;5100576;28;20024;-72
2023/08/30 11:58:36;;;;;;;0.35;0.30;;;15.70;99.90;;;;;;5095786;28;20476;-73
2023/08/30 12:01:03;;;;;;;1.17;0.40;;;15.80;99.90;;;;;;5107468;28;20426;-72
2023/08/30 12:03:30;;;;;;;0.75;0.40;;;15.90;99.90;;;;;;5111819;28;20031;-72
2023/08/30 12:05:56;;;;;;;0.47;0.40;;;16.00;99.90;;;;;;5110922;28;20754;-72
2023/08/30 12:08:31;;;;;;;1.83;0.40;;;16.00;99.90;;;;;;5109215;28;20607;-72
2023/08/30 12:10:58;;;;;;;1.42;0.40;;;16.00;99.90;;;;;;5090234;28;20028;-72
2023/08/30 12:13:29;;;;;;;1.10;0.40;;;16.00;99.90;;;;;;5092837;28;20110;-72
2023/08/30 12:15:58;;;;;;;0.40;0.30;;;16.00;99.90;;;;;;5108025;28;20024;-72
2023/08/30 12:18:29;;;;;;;0.57;0.30;;;16.00;99.90;;;;;;5088711;28;20112;-72
2023/08/30 12:21:00;;;;;;;1.17;0.37;;;16.10;99.90;;;;;;5090935;28;20019;-72
2023/08/30 12:23:29;;;;;;;0.90;0.40;;;16.10;99.90;;;;;;5108669;28;20257;-72
2023/08/30 12:26:01;;;;;;;0.93;0.30;;;16.10;99.90;;;;;;5109227;28;20031;-72
2023/08/30 12:28:28;;;;;;;1.63;0.30;;;16.10;99.90;;;;;;5106428;28;20027;-73
2023/08/30 12:30:54;;;;;;;0.50;0.30;;;16.10;99.90;;;;;;5090859;28;20047;-72
2023/08/30 12:33:21;;;;;;;0.60;0.30;;;16.10;99.90;;;;;;5114506;28;20102;-73
2023/08/30 12:35:47;;;;;;;0.80;0.40;;;16.10;99.90;;;;;;5095132;28;20495;-73
2023/08/30 12:38:17;;;;;;;0.57;0.32;;;16.20;99.90;;;;;;5114571;28;20035;-73
2023/08/30 12:40:46;;;;;;;1.23;0.30;;;16.20;99.90;;;;;;5115170;27;20473;-72
2023/08/30 12:43:12;;;;;;;0.60;0.35;;;16.30;99.90;;;;;;5096498;27;20031;-73
2023/08/30 12:45:39;;;;;;;0.35;0.20;;;16.40;99.90;;;;;;5112291;28;20105;-72
2023/08/30 12:48:05;;;;;;;0.40;0.20;;;16.50;99.90;;;;;;5115094;28;20461;-73